Time;durP1;ratioP1;P1;durP2;ratioP2;P2;SDS_P1;SDS_P2;PMS_P1;PMS_P2;Temp;Humidity;BMP_temperature;BMP_pressure;BME280_temperature;BME280_humidity;BME280_pressure;Samples;Min_cycle;Max_cycle;Signal;HPM_P1;HPM_P2
2021/04/13 00:00:33;;;;;;;11.67;7.60;;;4.10;99.90;;;;;;5074545;28;20455;-53
2021/04/13 00:03:04;;;;;;;12.97;8.93;;;4.00;99.90;;;;;;5073913;28;20450;-53
2021/04/13 00:05:37;;;;;;;13.20;8.20;;;4.00;99.90;;;;;;5073534;28;20462;-53
2021/04/13 00:08:09;;;;;;;10.93;7.63;;;4.00;99.90;;;;;;5073705;28;20446;-53
2021/04/13 00:10:42;;;;;;;11.60;7.57;;;4.00;99.90;;;;;;5074120;28;20452;-53
2021/04/13 00:13:11;;;;;;;12.27;8.30;;;4.00;99.90;;;;;;5073955;28;20449;-52
2021/04/13 00:15:41;;;;;;;12.13;7.80;;;4.00;99.90;;;;;;5073397;28;20486;-53
2021/04/13 00:18:10;;;;;;;12.03;8.13;;;4.00;99.90;;;;;;5073531;28;20454;-52
2021/04/13 00:20:44;;;;;;;13.57;7.90;;;4.00;99.90;;;;;;5073497;28;20453;-52
2021/04/13 00:23:11;;;;;;;12.70;8.03;;;4.00;99.90;;;;;;5073724;28;20878;-53
2021/04/13 00:25:47;;;;;;;13.03;7.80;;;4.00;99.90;;;;;;5073152;28;20991;-53
2021/04/13 00:28:14;;;;;;;10.40;7.10;;;4.00;99.90;;;;;;5073327;28;20460;-53
2021/04/13 00:30:43;;;;;;;9.77;7.00;;;4.10;99.90;;;;;;5073148;28;20450;-53
2021/04/13 00:33:15;;;;;;;10.80;7.50;;;4.10;99.90;;;;;;5073420;28;20509;-53
2021/04/13 00:35:45;;;;;;;12.37;7.63;;;4.00;99.90;;;;;;5073418;28;20585;-53
2021/04/13 00:38:28;;;;;;;11.40;7.90;;;3.70;99.90;;;;;;5073245;28;20512;-53
2021/04/13 00:41:00;;;;;;;13.03;7.77;;;3.90;99.90;;;;;;5073302;28;20538;-53
2021/04/13 00:43:28;;;;;;;11.60;7.67;;;4.00;99.90;;;;;;5073387;28;20455;-53
2021/04/13 00:45:56;;;;;;;14.17;8.80;;;4.10;99.90;;;;;;5073170;28;20478;-53
2021/04/13 00:48:27;;;;;;;13.77;9.03;;;4.20;99.90;;;;;;5072827;28;20458;-53
2021/04/13 00:51:03;;;;;;;14.53;9.23;;;4.20;99.90;;;;;;5072632;28;20450;-53
2021/04/13 00:53:33;;;;;;;13.70;8.60;;;4.10;99.90;;;;;;5073544;28;20904;-53
2021/04/13 00:56:04;;;;;;;16.40;10.13;;;4.00;99.90;;;;;;5072982;28;20481;-52
2021/04/13 00:58:33;;;;;;;15.40;10.23;;;4.20;99.90;;;;;;5072390;28;20462;-53
2021/04/13 01:01:05;;;;;;;13.60;9.13;;;4.10;99.90;;;;;;5072972;28;20456;-52
2021/04/13 01:03:33;;;;;;;13.70;9.57;;;4.00;99.90;;;;;;5073236;28;20458;-53
2021/04/13 01:06:01;;;;;;;13.63;9.67;;;3.80;99.90;;;;;;5072656;28;20467;-53
2021/04/13 01:08:34;;;;;;;17.37;9.97;;;3.70;99.90;;;;;;5071856;28;20447;-52
2021/04/13 01:11:12;;;;;;;12.10;8.60;;;3.60;99.90;;;;;;5073112;28;20536;-52
2021/04/13 01:13:46;;;;;;;11.10;7.90;;;3.60;99.90;;;;;;5072610;28;20458;-52
2021/04/13 01:16:14;;;;;;;9.60;6.20;;;3.70;99.90;;;;;;5072262;28;20539;-51
2021/04/13 01:18:43;;;;;;;7.00;5.60;;;3.80;99.90;;;;;;5071358;28;20461;-52
2021/04/13 01:21:26;;;;;;;7.00;5.70;;;4.00;99.90;;;;;;5072078;28;20451;-52
2021/04/13 01:23:56;;;;;;;7.27;5.10;;;4.00;99.90;;;;;;5072589;28;20540;-52
2021/04/13 01:26:30;;;;;;;7.63;5.40;;;3.90;99.90;;;;;;5072184;28;20603;-53
2021/04/13 01:28:57;;;;;;;8.97;5.27;;;3.90;99.90;;;;;;5072009;28;20454;-53
2021/04/13 01:31:43;;;;;;;10.10;5.80;;;3.80;99.90;;;;;;5072479;28;20451;-52
2021/04/13 01:34:15;;;;;;;6.90;4.93;;;3.80;99.90;;;;;;5071988;28;20460;-52
2021/04/13 01:36:45;;;;;;;6.40;4.60;;;3.80;99.90;;;;;;5072062;28;20490;-52
2021/04/13 01:39:16;;;;;;;8.20;5.90;;;3.80;99.90;;;;;;5071609;28;20484;-52
2021/04/13 01:41:57;;;;;;;8.70;6.10;;;3.80;99.90;;;;;;5062458;28;20453;-53
2021/04/13 01:44:28;;;;;;;9.10;6.00;;;3.80;99.90;;;;;;5072138;28;20455;-52
2021/04/13 01:46:55;;;;;;;8.97;6.03;;;3.70;99.90;;;;;;5071219;28;20947;-52
2021/04/13 01:49:23;;;;;;;8.40;5.97;;;3.80;99.90;;;;;;5071767;28;20529;-52
2021/04/13 01:51:51;;;;;;;8.67;6.30;;;3.70;99.90;;;;;;5072144;28;20516;-52
2021/04/13 01:54:18;;;;;;;10.00;6.90;;;3.70;99.90;;;;;;5071768;28;20944;-52
2021/04/13 01:57:07;;;;;;;8.60;6.17;;;3.70;99.90;;;;;;5071053;28;20475;-52
2021/04/13 01:59:39;;;;;;;9.40;6.70;;;3.80;99.90;;;;;;5071606;28;20453;-52
2021/04/13 02:02:13;;;;;;;10.83;6.27;;;3.70;99.90;;;;;;5071048;28;20502;-52
2021/04/13 02:04:47;;;;;;;12.00;7.37;;;3.50;99.90;;;;;;5071966;28;20472;-51
2021/04/13 02:07:26;;;;;;;12.83;7.50;;;3.10;99.90;;;;;;5071955;28;20450;-52
2021/04/13 02:10:01;;;;;;;11.23;7.10;;;2.90;99.90;;;;;;5071511;28;20825;-51
2021/04/13 02:12:31;;;;;;;8.83;6.40;;;2.70;99.90;;;;;;5071694;28;20453;-52
2021/04/13 02:15:06;;;;;;;11.77;7.23;;;2.90;99.90;;;;;;5071477;28;20478;-52
2021/04/13 02:17:38;;;;;;;8.00;5.60;;;3.00;99.90;;;;;;5071609;28;20437;-52
2021/04/13 02:20:08;;;;;;;11.90;7.10;;;3.10;99.90;;;;;;5071272;28;20450;-52
2021/04/13 02:22:42;;;;;;;10.43;6.57;;;3.00;99.90;;;;;;5071648;28;20930;-52
2021/04/13 02:25:10;;;;;;;10.37;6.33;;;3.10;99.90;;;;;;5071309;28;20980;-52
2021/04/13 02:27:42;;;;;;;10.27;6.20;;;3.20;99.90;;;;;;5071004;28;20592;-52
2021/04/13 02:30:11;;;;;;;10.47;6.50;;;3.00;99.90;;;;;;5071001;28;20482;-52
2021/04/13 02:32:44;;;;;;;11.27;6.63;;;3.00;99.90;;;;;;5071778;28;20821;-52
2021/04/13 02:35:19;;;;;;;9.80;6.43;;;3.00;99.90;;;;;;5071845;28;20488;-52
2021/04/13 02:37:49;;;;;;;10.60;6.47;;;3.00;99.90;;;;;;5070932;28;20511;-52
2021/04/13 02:40:18;;;;;;;8.40;5.60;;;3.00;99.90;;;;;;5066229;28;20824;-52
2021/04/13 02:42:48;;;;;;;9.07;5.83;;;3.00;99.90;;;;;;5071582;28;20531;-52
2021/04/13 02:45:28;;;;;;;8.97;6.00;;;3.10;99.90;;;;;;5071264;28;20855;-52
2021/04/13 02:48:00;;;;;;;9.30;5.67;;;2.90;99.90;;;;;;5070461;28;20534;-52
2021/04/13 02:50:28;;;;;;;8.97;5.73;;;2.90;99.90;;;;;;5071232;28;20946;-52
2021/04/13 02:52:56;;;;;;;12.77;6.40;;;3.10;99.90;;;;;;5071120;28;21016;-52
2021/04/13 02:55:26;;;;;;;10.40;6.57;;;3.20;99.90;;;;;;5070939;28;20544;-51
2021/04/13 02:57:55;;;;;;;13.53;7.27;;;2.90;99.90;;;;;;5070634;28;20527;-52
2021/04/13 03:00:28;;;;;;;12.93;7.80;;;2.50;99.90;;;;;;5071383;28;20965;-52
2021/04/13 03:02:57;;;;;;;16.20;9.90;;;2.50;99.90;;;;;;5071331;28;20797;-52
2021/04/13 03:05:26;;;;;;;17.43;10.03;;;2.40;99.90;;;;;;5071413;28;20474;-52
2021/04/13 03:07:55;;;;;;;22.53;11.63;;;2.30;99.90;;;;;;5070652;28;20804;-51
2021/04/13 03:10:28;;;;;;;24.60;10.17;;;2.10;99.90;;;;;;5071188;28;20497;-52
2021/04/13 03:12:57;;;;;;;21.67;10.50;;;2.10;99.90;;;;;;5071448;28;20458;-51
2021/04/13 03:15:27;;;;;;;19.07;10.30;;;2.20;99.90;;;;;;5071139;28;20989;-51
2021/04/13 03:17:56;;;;;;;22.60;11.23;;;2.30;99.90;;;;;;5070627;28;20957;-51
2021/04/13 03:20:26;;;;;;;21.63;11.07;;;2.20;99.90;;;;;;5071243;28;20841;-52
2021/04/13 03:22:55;;;;;;;19.87;11.50;;;2.10;99.90;;;;;;5071095;28;20440;-51
2021/04/13 03:25:25;;;;;;;19.03;10.83;;;2.10;99.90;;;;;;5071069;28;20560;-51
2021/04/13 03:27:52;;;;;;;22.23;12.00;;;2.10;99.90;;;;;;5070488;28;20496;-51
2021/04/13 03:30:24;;;;;;;21.00;11.17;;;2.00;99.90;;;;;;5070217;28;20454;-51
2021/04/13 03:32:54;;;;;;;23.17;11.47;;;2.00;99.90;;;;;;5070847;28;20478;-51
2021/04/13 03:35:24;;;;;;;21.93;11.33;;;2.00;99.90;;;;;;5070201;28;20532;-51
2021/04/13 03:37:53;;;;;;;19.43;11.07;;;2.10;99.90;;;;;;5068857;28;20454;-52
2021/04/13 03:40:23;;;;;;;20.93;10.67;;;2.20;99.90;;;;;;5071170;28;20521;-52
2021/04/13 03:42:54;;;;;;;18.47;11.33;;;2.20;99.90;;;;;;5074323;28;20449;-52
2021/04/13 03:45:21;;;;;;;22.00;11.20;;;2.20;99.90;;;;;;5074594;28;20564;-51
2021/04/13 03:47:48;;;;;;;18.97;10.80;;;2.30;99.90;;;;;;5074178;28;20506;-51
2021/04/13 03:50:21;;;;;;;21.63;11.30;;;2.40;99.90;;;;;;5074375;28;20460;-52
2021/04/13 03:52:59;;;;;;;19.80;10.80;;;2.50;99.90;;;;;;5074258;28;20452;-51
2021/04/13 03:55:25;;;;;;;18.40;9.83;;;2.40;99.90;;;;;;5073975;28;21054;-52
2021/04/13 03:57:52;;;;;;;18.20;10.43;;;2.50;99.90;;;;;;5074409;28;20457;-52
2021/04/13 04:00:23;;;;;;;17.37;10.90;;;2.40;99.90;;;;;;5074135;28;20454;-51
2021/04/13 04:02:50;;;;;;;19.93;11.23;;;2.50;99.90;;;;;;5073893;28;20869;-51
2021/04/13 04:05:21;;;;;;;19.30;11.20;;;2.40;99.90;;;;;;5074096;28;20480;-52
2021/04/13 04:07:52;;;;;;;20.50;11.33;;;2.40;99.90;;;;;;5073673;28;20509;-51
2021/04/13 04:10:31;;;;;;;19.67;11.13;;;2.60;99.90;;;;;;5074191;28;20453;-52
2021/04/13 04:12:59;;;;;;;19.47;10.47;;;2.70;99.90;;;;;;5074270;28;20452;-51
2021/04/13 04:15:30;;;;;;;21.40;11.10;;;2.70;99.90;;;;;;5073474;28;20476;-51
2021/04/13 04:17:56;;;;;;;15.10;9.07;;;2.90;99.90;;;;;;5073529;28;20445;-52
2021/04/13 04:20:33;;;;;;;20.80;11.57;;;3.00;99.90;;;;;;5073888;28;20943;-51
2021/04/13 04:23:00;;;;;;;18.70;10.10;;;2.90;99.90;;;;;;5073742;28;20826;-51
2021/04/13 04:25:36;;;;;;;18.80;10.63;;;3.00;99.90;;;;;;5073598;28;20465;-51
2021/04/13 04:28:08;;;;;;;14.93;9.63;;;3.00;99.90;;;;;;5073224;28;21220;-52
2021/04/13 04:30:36;;;;;;;16.97;9.60;;;3.10;99.90;;;;;;5073051;28;20456;-52
2021/04/13 04:33:04;;;;;;;15.87;9.47;;;2.90;99.90;;;;;;5073281;28;20447;-52
2021/04/13 04:35:42;;;;;;;15.37;8.87;;;2.80;99.90;;;;;;5073321;28;20469;-51
2021/04/13 04:38:26;;;;;;;19.50;9.83;;;2.80;99.90;;;;;;5073190;28;20456;-52
2021/04/13 04:40:56;;;;;;;14.13;9.07;;;2.80;99.90;;;;;;5073489;28;20540;-52
2021/04/13 04:43:44;;;;;;;13.67;9.80;;;2.70;99.90;;;;;;5073145;28;20486;-51
2021/04/13 04:46:29;;;;;;;15.27;9.50;;;2.70;99.90;;;;;;5072885;28;20475;-52
2021/04/13 04:49:01;;;;;;;20.77;10.47;;;2.70;99.90;;;;;;5095192;22;20449;-49
2021/04/13 04:51:28;;;;;;;17.00;9.73;;;2.70;99.90;;;;;;5029769;28;20468;-49
2021/04/13 04:53:54;;;;;;;14.10;9.30;;;2.70;99.90;;;;;;5033568;28;20448;-49
2021/04/13 04:56:21;;;;;;;13.07;8.40;;;2.40;99.90;;;;;;5032076;28;20492;-49
2021/04/13 04:58:47;;;;;;;16.93;10.60;;;2.40;99.90;;;;;;5032920;28;20462;-49
2021/04/13 05:01:14;;;;;;;15.83;10.67;;;2.30;99.90;;;;;;5032902;28;20462;-49
2021/04/13 05:03:42;;;;;;;21.70;11.13;;;2.50;99.90;;;;;;5033102;28;20955;-50
2021/04/13 05:06:09;;;;;;;18.77;11.10;;;2.40;99.90;;;;;;5032751;28;20539;-49
2021/04/13 05:08:36;;;;;;;22.63;10.40;;;2.60;99.90;;;;;;5032897;28;20530;-49
2021/04/13 05:11:03;;;;;;;17.73;10.40;;;2.60;99.90;;;;;;5032763;28;20484;-49
2021/04/13 05:13:30;;;;;;;19.50;9.90;;;2.50;99.90;;;;;;5032974;28;20505;-49
2021/04/13 05:15:57;;;;;;;18.30;9.13;;;2.60;99.90;;;;;;5036997;28;20627;-49
2021/04/13 05:18:25;;;;;;;15.80;9.37;;;2.50;99.90;;;;;;5032773;28;20451;-49
2021/04/13 05:20:51;;;;;;;14.63;9.03;;;2.50;99.90;;;;;;5033047;28;20471;-49
2021/04/13 05:23:19;;;;;;;15.50;8.90;;;2.40;99.90;;;;;;5021068;28;20495;-49
2021/04/13 05:25:46;;;;;;;17.53;8.53;;;2.50;99.90;;;;;;5018973;28;20482;-48
2021/04/13 05:28:13;;;;;;;15.20;9.63;;;2.60;99.90;;;;;;5032218;28;20457;-49
2021/04/13 05:30:40;;;;;;;14.73;8.77;;;2.60;99.90;;;;;;5032269;28;20509;-49
2021/04/13 05:33:07;;;;;;;13.17;8.30;;;2.50;99.90;;;;;;5032251;28;20832;-48
2021/04/13 05:35:34;;;;;;;13.07;8.03;;;2.60;99.90;;;;;;5032396;28;20449;-50
2021/04/13 05:38:05;;;;;;;13.13;7.70;;;2.60;99.90;;;;;;5031631;28;20962;-49
2021/04/13 05:40:34;;;;;;;13.63;7.90;;;2.60;99.90;;;;;;5032077;28;20831;-49
2021/04/13 05:43:01;;;;;;;17.80;8.60;;;2.60;99.90;;;;;;5031754;28;20584;-50
2021/04/13 05:45:30;;;;;;;13.30;8.20;;;2.70;99.90;;;;;;5032109;28;20483;-49
2021/04/13 05:47:59;;;;;;;14.47;7.50;;;2.90;99.90;;;;;;5032573;28;20458;-50
2021/04/13 05:50:28;;;;;;;15.10;8.23;;;3.00;99.90;;;;;;5032249;28;20485;-50
2021/04/13 05:52:55;;;;;;;13.40;8.37;;;3.20;99.90;;;;;;5032067;28;20466;-50
2021/04/13 05:55:22;;;;;;;14.40;8.83;;;3.30;99.90;;;;;;5031450;28;20458;-50
2021/04/13 05:57:53;;;;;;;14.63;9.33;;;3.30;99.90;;;;;;5031618;28;20850;-48
2021/04/13 06:00:22;;;;;;;13.43;8.80;;;3.40;99.90;;;;;;5032102;28;20537;-49
2021/04/13 06:02:48;;;;;;;14.57;8.93;;;3.40;99.90;;;;;;5025217;28;20476;-49
2021/04/13 06:05:16;;;;;;;13.70;8.20;;;3.40;99.90;;;;;;5031465;28;20456;-49
2021/04/13 06:07:42;;;;;;;11.73;7.63;;;3.40;99.90;;;;;;5031751;28;20446;-49
2021/04/13 06:10:10;;;;;;;13.80;7.97;;;3.60;99.90;;;;;;5037304;28;20472;-50
2021/04/13 06:12:37;;;;;;;13.87;7.80;;;3.80;99.90;;;;;;5027187;28;20452;-50
2021/04/13 06:15:05;;;;;;;14.53;8.10;;;3.90;99.90;;;;;;5012359;28;20450;-50
2021/04/13 06:17:31;;;;;;;13.37;8.40;;;4.10;99.90;;;;;;5012169;28;20578;-50
2021/04/13 06:19:58;;;;;;;14.33;8.50;;;4.20;99.90;;;;;;5011996;28;20483;-50
2021/04/13 06:22:24;;;;;;;13.83;8.70;;;4.20;99.90;;;;;;5027570;28;20445;-50
2021/04/13 06:24:51;;;;;;;13.50;8.80;;;4.40;99.90;;;;;;5014143;28;20836;-50
2021/04/13 06:27:18;;;;;;;12.67;8.00;;;4.40;99.90;;;;;;5031891;28;20520;-50
2021/04/13 06:29:45;;;;;;;12.87;7.87;;;4.50;99.90;;;;;;5031667;28;20475;-49
2021/04/13 06:32:11;;;;;;;12.30;8.03;;;4.80;99.90;;;;;;5030903;28;20487;-49
2021/04/13 06:34:38;;;;;;;13.13;8.00;;;4.90;99.90;;;;;;5031585;28;20475;-50
2021/04/13 06:37:07;;;;;;;12.90;8.50;;;5.10;99.90;;;;;;5031535;28;20980;-51
2021/04/13 06:39:34;;;;;;;11.93;7.87;;;5.40;99.90;;;;;;5031532;28;20476;-50
2021/04/13 06:42:35;;;;;;;12.40;8.20;;;5.50;99.90;;;;;;5031841;28;20509;-49
2021/04/13 06:45:32;;;;;;;13.10;8.40;;;5.70;99.90;;;;;;4958930;28;20508;-50
2021/04/13 06:48:20;;;;;;;10.60;7.70;;;6.20;99.90;;;;;;5030109;28;20574;-50
2021/04/13 06:50:58;;;;;;;14.53;9.03;;;6.30;99.90;;;;;;5030641;28;21029;-50
2021/04/13 06:53:39;;;;;;;10.97;7.50;;;5.40;99.90;;;;;;5027749;28;20471;-50
2021/04/13 06:56:42;;;;;;;12.87;7.73;;;4.90;99.90;;;;;;5031405;28;20476;-50
2021/04/13 06:59:35;;;;;;;9.13;7.27;;;5.70;99.90;;;;;;5031574;28;20471;-51
2021/04/13 07:02:07;;;;;;;9.60;6.80;;;6.60;99.90;;;;;;5029147;28;20463;-50
2021/04/13 07:04:40;;;;;;;9.93;6.70;;;7.00;99.90;;;;;;5025318;28;20456;-50
2021/04/13 07:07:12;;;;;;;12.00;7.10;;;7.40;99.90;;;;;;5031069;28;20494;-50
2021/04/13 07:09:43;;;;;;;7.87;6.33;;;7.60;99.90;;;;;;5030193;28;21009;-50
2021/04/13 07:12:17;;;;;;;9.23;6.87;;;7.90;99.90;;;;;;5029813;28;20468;-51
2021/04/13 07:14:56;;;;;;;11.17;7.30;;;8.20;99.90;;;;;;5011684;28;20444;-51
2021/04/13 07:17:29;;;;;;;9.60;7.03;;;8.30;99.90;;;;;;5023362;28;20866;-50
2021/04/13 07:19:59;;;;;;;10.73;7.93;;;7.90;99.90;;;;;;5035249;28;20882;-50
2021/04/13 07:22:29;;;;;;;14.00;9.07;;;8.40;99.90;;;;;;5034152;28;20448;-51
2021/04/13 07:25:00;;;;;;;12.50;9.00;;;8.90;99.90;;;;;;5034331;28;20452;-51
2021/04/13 07:27:35;;;;;;;11.57;8.20;;;9.40;99.90;;;;;;5034473;28;20449;-51
2021/04/13 07:30:06;;;;;;;13.00;8.60;;;10.00;99.90;;;;;;5034899;28;20551;-50
2021/04/13 07:32:35;;;;;;;11.10;7.70;;;9.60;99.90;;;;;;5033673;28;20445;-51
2021/04/13 07:35:05;;;;;;;13.50;9.70;;;9.30;99.90;;;;;;5030870;28;20465;-51
2021/04/13 07:37:34;;;;;;;11.33;8.80;;;8.10;99.90;;;;;;5028134;28;20576;-50
2021/04/13 07:40:06;;;;;;;17.03;10.30;;;7.10;99.90;;;;;;5034491;28;20531;-50
2021/04/13 07:42:40;;;;;;;11.27;8.77;;;7.30;99.90;;;;;;5035008;28;20518;-50
2021/04/13 07:45:22;;;;;;;14.73;10.03;;;7.20;99.90;;;;;;5034907;28;20954;-50
2021/04/13 07:48:10;;;;;;;17.50;9.70;;;6.70;99.90;;;;;;5034581;28;20445;-50
2021/04/13 07:50:49;;;;;;;18.97;11.70;;;5.90;99.90;;;;;;5034580;28;20483;-50
2021/04/13 07:53:25;;;;;;;18.03;11.13;;;5.40;99.90;;;;;;5034142;28;20827;-50
2021/04/13 07:55:56;;;;;;;27.50;15.57;;;4.90;99.90;;;;;;5034442;28;20509;-49
2021/04/13 07:58:38;;;;;;;21.70;13.60;;;5.00;99.90;;;;;;5034295;28;20498;-50
2021/04/13 08:01:08;;;;;;;17.53;11.60;;;4.80;99.90;;;;;;5033738;28;20472;-49
2021/04/13 08:03:37;;;;;;;17.60;10.50;;;4.70;99.90;;;;;;5033209;28;20465;-49
2021/04/13 08:06:05;;;;;;;17.20;10.50;;;4.60;99.90;;;;;;5034484;28;20584;-49
2021/04/13 08:08:34;;;;;;;17.90;11.80;;;4.60;99.90;;;;;;5034380;28;20549;-50
2021/04/13 08:11:11;;;;;;;15.50;10.00;;;4.70;99.90;;;;;;5034120;28;20516;-50
2021/04/13 08:13:38;;;;;;;16.53;10.80;;;4.80;99.90;;;;;;5034123;28;20547;-50
2021/04/13 08:16:06;;;;;;;15.57;9.80;;;5.10;99.90;;;;;;5030263;28;20483;-51
2021/04/13 08:18:39;;;;;;;13.47;8.30;;;5.80;99.90;;;;;;5033876;28;20629;-51
2021/04/13 08:21:31;;;;;;;11.93;8.17;;;7.40;99.90;;;;;;5034065;28;20476;-50
2021/04/13 08:23:58;;;;;;;13.10;8.10;;;8.20;99.90;;;;;;5019939;28;20460;-51
2021/04/13 08:26:45;;;;;;;11.50;8.60;;;7.90;99.90;;;;;;5033582;28;20797;-51
2021/04/13 08:29:24;;;;;;;12.50;8.10;;;8.60;99.90;;;;;;5033646;28;20563;-51
2021/04/13 08:34:57;;;;;;;13.50;8.87;;;8.80;99.90;;;;;;5033765;28;20435;-51
2021/04/13 08:37:32;;;;;;;15.10;9.73;;;8.60;99.90;;;;;;5032236;28;20559;-50
2021/04/13 08:40:14;;;;;;;13.43;8.77;;;7.10;99.90;;;;;;5033046;28;21006;-50
2021/04/13 08:42:47;;;;;;;13.50;8.93;;;6.80;99.90;;;;;;5033468;28;20548;-51
2021/04/13 08:45:21;;;;;;;16.53;8.47;;;7.90;99.90;;;;;;5033613;28;20502;-50
2021/04/13 08:47:52;;;;;;;14.47;9.70;;;9.50;99.90;;;;;;5033062;28;20510;-50
2021/04/13 08:50:33;;;;;;;12.30;8.80;;;9.30;99.90;;;;;;5033083;28;20474;-52
2021/04/13 08:53:05;;;;;;;13.00;8.90;;;9.20;99.90;;;;;;5033405;28;20451;-50
2021/04/13 08:55:48;;;;;;;10.87;8.53;;;8.90;99.90;;;;;;5033578;28;20449;-51
2021/04/13 08:58:33;;;;;;;12.10;7.80;;;9.20;99.90;;;;;;5033110;28;20441;-51
2021/04/13 09:01:19;;;;;;;12.53;7.80;;;8.50;99.90;;;;;;5032970;28;20462;-51
2021/04/13 09:03:45;;;;;;;14.27;8.80;;;8.90;99.90;;;;;;5033138;28;20456;-51
2021/04/13 09:06:17;;;;;;;17.40;9.07;;;8.60;99.90;;;;;;5033028;28;20995;-51
2021/04/13 09:08:53;;;;;;;12.73;8.70;;;9.00;99.90;;;;;;5032439;28;20448;-51
2021/04/13 09:11:28;;;;;;;13.57;8.90;;;8.50;99.90;;;;;;5029814;28;20874;-50
2021/04/13 09:14:10;;;;;;;14.87;8.90;;;7.90;99.90;;;;;;5021283;28;20692;-50
2021/04/13 09:16:42;;;;;;;14.40;8.33;;;8.50;99.90;;;;;;5024428;28;21347;-50
2021/04/13 09:19:23;;;;;;;12.00;7.90;;;8.40;99.90;;;;;;5030394;28;20531;-50
2021/04/13 09:21:51;;;;;;;11.87;7.87;;;7.70;99.90;;;;;;5027887;28;20453;-51
2021/04/13 09:24:20;;;;;;;13.03;7.73;;;7.40;99.90;;;;;;5032569;28;20451;-51
2021/04/13 09:27:02;;;;;;;11.60;7.80;;;8.00;99.90;;;;;;5032080;28;20452;-50
2021/04/13 09:29:39;;;;;;;13.70;9.50;;;7.70;99.90;;;;;;5031451;28;20480;-51
2021/04/13 09:32:08;;;;;;;14.80;9.13;;;7.40;99.90;;;;;;5031469;28;20823;-51
2021/04/13 09:35:19;;;;;;;14.27;8.40;;;7.90;99.90;;;;;;5032559;28;20452;-50
2021/04/13 09:37:59;;;;;;;13.73;8.80;;;7.70;99.90;;;;;;5030693;28;20488;-51
2021/04/13 09:40:38;;;;;;;11.63;8.10;;;7.60;99.90;;;;;;5032337;28;20821;-50
2021/04/13 09:43:24;;;;;;;10.43;7.50;;;7.30;99.90;;;;;;5029901;28;20468;-51
2021/04/13 09:46:06;;;;;;;11.43;7.90;;;7.50;99.90;;;;;;5028685;28;20460;-50
2021/04/13 09:48:53;;;;;;;10.23;7.00;;;7.30;99.90;;;;;;5028646;28;20465;-51
2021/04/13 09:51:26;;;;;;;4.67;4.00;;;7.40;99.90;;;;;;5030807;28;20475;-51
2021/04/13 09:54:19;;;;;;;4.40;3.77;;;7.30;99.90;;;;;;5032259;28;20456;-52
2021/04/13 09:57:41;;;;;;;6.53;4.70;;;7.30;99.90;;;;;;5031199;28;21019;-51
2021/04/13 10:00:35;;;;;;;7.73;5.40;;;7.70;99.90;;;;;;5031148;28;20504;-50
2021/04/13 10:03:14;;;;;;;8.10;5.40;;;8.40;99.90;;;;;;5030295;28;20464;-52
2021/04/13 10:05:44;;;;;;;8.10;5.80;;;8.60;99.90;;;;;;5026678;28;20452;-50
2021/04/13 10:08:19;;;;;;;11.60;6.80;;;8.10;99.90;;;;;;5028343;28;20457;-51
2021/04/13 10:10:58;;;;;;;7.90;5.93;;;7.90;99.90;;;;;;5021048;28;20480;-51
2021/04/13 10:14:07;;;;;;;7.70;5.83;;;8.00;99.90;;;;;;5025594;28;20468;-51
2021/04/13 10:16:39;;;;;;;8.23;5.87;;;8.90;99.90;;;;;;4995948;28;20567;-51
2021/04/13 10:19:42;;;;;;;7.07;5.07;;;9.60;99.90;;;;;;5022155;28;20520;-52
2021/04/13 10:22:43;;;;;;;7.70;5.80;;;10.50;99.90;;;;;;5022446;28;20471;-52
2021/04/13 10:26:10;;;;;;;9.10;7.00;;;11.40;99.90;;;;;;5019070;28;20473;-53
2021/04/13 10:28:59;;;;;;;11.00;7.93;;;11.40;99.90;;;;;;4980370;28;20461;-51
2021/04/13 10:32:08;;;;;;;10.47;7.70;;;9.90;99.90;;;;;;5023066;28;20847;-51
2021/04/13 10:35:11;;;;;;;11.67;8.10;;;8.10;99.90;;;;;;5021470;28;20459;-51
2021/04/13 10:38:07;;;;;;;10.40;8.07;;;7.10;99.90;;;;;;5021609;28;20491;-52
2021/04/13 10:41:06;;;;;;;9.70;7.17;;;7.00;99.90;;;;;;5020225;28;20484;-50
2021/04/13 10:44:11;;;;;;;10.87;7.00;;;6.90;99.90;;;;;;5020428;28;20461;-50
2021/04/13 10:46:49;;;;;;;10.70;7.17;;;6.40;99.90;;;;;;5018773;28;20452;-51
2021/04/13 10:50:10;;;;;;;11.87;7.73;;;6.90;99.90;;;;;;5025343;28;20923;-53
2021/04/13 10:53:17;;;;;;;12.53;7.40;;;7.80;99.90;;;;;;4948466;28;20499;-51
2021/04/13 10:55:57;;;;;;;11.17;7.67;;;8.10;99.90;;;;;;4946409;29;20463;-50
2021/04/13 10:59:00;;;;;;;9.67;7.07;;;8.70;99.90;;;;;;5013590;28;20496;-51
2021/04/13 11:02:00;;;;;;;8.80;6.60;;;9.00;99.90;;;;;;5028382;28;20468;-51
2021/04/13 11:05:06;;;;;;;9.20;6.60;;;9.10;99.90;;;;;;5025239;28;20468;-51
2021/04/13 11:08:09;;;;;;;10.93;7.17;;;9.70;99.90;;;;;;5033742;28;20452;-51
2021/04/13 11:11:14;;;;;;;8.83;6.23;;;9.30;99.90;;;;;;5063557;22;20488;-52
2021/04/13 11:14:17;;;;;;;9.53;6.27;;;8.00;99.90;;;;;;5065634;28;20462;-51
2021/04/13 11:17:10;;;;;;;8.50;6.30;;;7.60;99.90;;;;;;5070687;28;20529;-52
2021/04/13 11:19:48;;;;;;;11.87;7.20;;;7.30;99.90;;;;;;5069691;28;20523;-53
2021/04/13 11:22:46;;;;;;;9.13;6.23;;;7.20;99.90;;;;;;5062553;28;20888;-53
2021/04/13 11:25:39;;;;;;;9.37;6.67;;;6.90;99.90;;;;;;5054166;28;20952;-52
2021/04/13 11:28:39;;;;;;;10.57;7.00;;;7.10;99.90;;;;;;5050839;28;20763;-52
2021/04/13 11:31:49;;;;;;;9.73;6.13;;;6.90;99.90;;;;;;5050361;28;20576;-53
2021/04/13 11:34:27;;;;;;;9.00;6.47;;;7.20;99.90;;;;;;5033323;28;20467;-53
2021/04/13 11:37:23;;;;;;;10.23;6.60;;;7.70;99.90;;;;;;5049707;28;20490;-53
2021/04/13 11:40:08;;;;;;;11.77;7.00;;;8.30;99.90;;;;;;5049525;28;20524;-52
2021/04/13 11:42:42;;;;;;;8.97;6.33;;;8.40;99.90;;;;;;5051382;28;20913;-52
2021/04/13 11:45:25;;;;;;;13.17;7.07;;;7.70;99.90;;;;;;5050362;28;20455;-55
2021/04/13 11:47:55;;;;;;;10.20;6.83;;;7.50;99.90;;;;;;5049614;28;20499;-52
2021/04/13 11:50:31;;;;;;;10.40;7.03;;;7.40;99.90;;;;;;5049677;28;20466;-52
2021/04/13 11:53:05;;;;;;;10.00;5.80;;;7.00;99.90;;;;;;5049884;28;20842;-52
2021/04/13 11:55:39;;;;;;;10.77;6.13;;;6.90;99.90;;;;;;5049293;28;20593;-53
2021/04/13 11:58:12;;;;;;;9.60;6.55;;;6.70;99.90;;;;;;5048285;28;20967;-52
2021/04/13 12:00:40;;;;;;;7.93;5.60;;;6.70;99.90;;;;;;5048784;28;20197;-52
2021/04/13 12:03:35;;;;;;;9.00;6.60;;;6.90;99.90;;;;;;5046345;28;20457;-52
2021/04/13 12:06:06;;;;;;;9.77;7.00;;;7.30;99.90;;;;;;5042309;28;20463;-51
2021/04/13 12:08:45;;;;;;;9.43;6.63;;;7.80;99.90;;;;;;5045965;28;20875;-52
2021/04/13 12:11:14;;;;;;;10.80;6.20;;;8.20;99.90;;;;;;5045848;28;20515;-52
2021/04/13 12:13:47;;;;;;;7.90;5.97;;;8.40;99.90;;;;;;5045096;28;21136;-53
2021/04/13 12:16:17;;;;;;;10.20;6.97;;;8.90;99.90;;;;;;5045766;28;20964;-53
2021/04/13 12:19:11;;;;;;;9.27;6.53;;;9.00;99.90;;;;;;5045557;28;20889;-53
2021/04/13 12:21:45;;;;;;;8.13;5.97;;;9.00;99.90;;;;;;5046970;28;20487;-53
2021/04/13 12:24:53;;;;;;;8.30;6.17;;;9.00;99.90;;;;;;5045681;28;20494;-53
2021/04/13 12:28:02;;;;;;;10.33;6.87;;;9.00;99.90;;;;;;5045228;28;20558;-53
2021/04/13 12:30:58;;;;;;;8.03;6.27;;;8.50;99.90;;;;;;5045733;28;20852;-53
2021/04/13 12:34:07;;;;;;;9.90;7.23;;;8.50;99.90;;;;;;5047001;28;20451;-53
2021/04/13 12:36:59;;;;;;;9.30;6.80;;;8.80;99.90;;;;;;5045064;28;20490;-53
2021/04/13 12:39:59;;;;;;;10.03;6.90;;;8.60;99.90;;;;;;5045349;28;20463;-52
2021/04/13 12:42:41;;;;;;;10.17;7.47;;;7.30;99.90;;;;;;5045425;28;20499;-52
2021/04/13 12:45:30;;;;;;;10.20;7.53;;;6.70;99.90;;;;;;5046531;28;20467;-51
2021/04/13 12:48:00;;;;;;;13.10;8.30;;;5.70;99.90;;;;;;5041544;28;20486;-52
2021/04/13 12:50:31;;;;;;;12.23;8.60;;;5.60;99.90;;;;;;5045559;28;21052;-52
2021/04/13 12:52:59;;;;;;;10.73;7.30;;;5.80;99.90;;;;;;5045043;28;20475;-52
2021/04/13 12:55:27;;;;;;;10.80;7.00;;;5.90;99.90;;;;;;5045439;28;20460;-52
2021/04/13 12:57:56;;;;;;;10.40;6.83;;;6.10;99.90;;;;;;5045639;28;20490;-52
2021/04/13 13:00:24;;;;;;;10.93;7.23;;;5.90;99.90;;;;;;5045500;28;20466;-53
2021/04/13 13:02:52;;;;;;;15.07;8.43;;;5.60;99.90;;;;;;5047212;28;20455;-51
2021/04/13 13:05:24;;;;;;;12.20;8.43;;;5.60;99.90;;;;;;5045281;28;20550;-52
2021/04/13 13:07:54;;;;;;;10.13;7.13;;;5.90;99.90;;;;;;5044830;28;20589;-53
2021/04/13 13:10:27;;;;;;;11.03;7.50;;;5.90;99.90;;;;;;5044213;28;20467;-52
2021/04/13 13:13:00;;;;;;;10.07;7.10;;;5.60;99.90;;;;;;5045679;28;20460;-52
2021/04/13 13:15:32;;;;;;;10.13;7.00;;;5.40;99.90;;;;;;5046194;28;20459;-52
2021/04/13 13:18:15;;;;;;;10.30;7.00;;;5.20;99.90;;;;;;5047063;28;20908;-52
2021/04/13 13:20:42;;;;;;;12.63;8.20;;;5.40;99.90;;;;;;5045062;28;20463;-52
2021/04/13 13:23:16;;;;;;;12.47;8.30;;;5.70;99.90;;;;;;5045500;28;20455;-52
2021/04/13 13:25:43;;;;;;;11.83;7.60;;;5.80;99.90;;;;;;5044485;28;20467;-53
2021/04/13 13:28:13;;;;;;;10.60;7.27;;;5.90;99.90;;;;;;5041562;28;20463;-51
2021/04/13 13:30:41;;;;;;;11.70;7.73;;;6.10;99.90;;;;;;5044818;28;20451;-52
2021/04/13 13:33:08;;;;;;;10.00;7.30;;;5.80;99.90;;;;;;5044453;28;20497;-53
2021/04/13 13:35:35;;;;;;;11.20;7.30;;;5.90;99.90;;;;;;5046383;28;20462;-53